Airfield :
LOGIN :

Register | Disclaimer

   EN    FR    IT 

 










Legend :    VFR   Marginal VFR   IFR   Intensive IFR   Very Intensive IFR
Visi :
Ceiling :
>= 8 km
>= 3000ft
5 to 8 km
1000 to 3000 ft
1500m to 5 km
500 to 1000 ft
800 to 1500m
200 to 500 ft
< 800m
< 200 ft
Symbols :   Thunderstorms  Fog  Heavy snow  Heavy precipitations  Wind > 20 kt
SIGMETs :     Misc.  Thunderstorms  Icing  Turbulence  Mountain Waves  Volcanic Ashes







- Airport Elevation : 194 ft


EBCV - Chièvres

CURRENT METAR :
  • 190755Z AUTO 24007KT 9999 OVC011/// 18/16 Q1025 GRN

EXPIRED METARs :
  • 190725Z AUTO 24007KT 9999 OVC011/// 17/15 Q1025 GRN
  • 190703Z AUTO 23007KT 9999 OVC014/// 17/15 Q1025 GRN
  • 190655Z AUTO 24007KT 9999 OVC016/// 17/15 Q1024 WHT
  • 190625Z AUTO 24008KT 9999 OVC010/// 17/15 Q1024 GRN
  • 190555Z AUTO 24009KT 9999 OVC011/// 17/15 Q1024 GRN
  • 190525Z AUTO 23008KT 9999 OVC010/// 17/15 Q1024 GRN

TAF TAF EBCV
Valid from the 19 at 07:00 until the 19 at 16:00 UTC


190541Z 1907/1916 24008KT 9999 NSW BKN010 OVC012
TEMPO 1907/1908 5000 BR DZ BKN006 BKN009
BECMG 1911/1913 BKN015 BKN020 BY EBWM
No reported NOTAMs for that airfield.



MET'MAP, your aeronautical weather chart ! - Copyright ORBIFLY December 2007 - Disclaimer

ORBIFLY MET'MAP TEAM :

Programming & Development : Alexandra Zaïnal
Concept & Development : Baudouin d'Aumeries
Co-Development & Prog : Marc-Olivier Méhu
Technical & hardware support : Manuel Goepfert

Contact : metmap@orbifly.com




SOURCES & CREDITS :

   NOAA